createdAt,value
2023-03-23T16:01:31.848Z,3.10
2023-03-23T16:06:35.784Z,2.73
2023-03-23T16:11:38.318Z,2.27
2023-03-23T16:16:53.413Z,3.00
2023-03-23T16:21:56.066Z,3.00
2023-03-23T16:26:58.398Z,2.80
2023-03-23T16:32:00.947Z,3.97
2023-03-23T16:37:03.254Z,2.97
2023-03-23T16:42:05.552Z,3.07
2023-03-23T16:47:07.801Z,4.10
2023-03-23T16:52:10.562Z,4.90
2023-03-23T16:57:13.119Z,4.70
2023-03-23T17:02:15.649Z,3.50
2023-03-23T17:07:18.194Z,4.90
2023-03-23T17:12:20.945Z,3.87
2023-03-23T17:17:24.786Z,5.90
2023-03-23T17:22:27.797Z,3.80
2023-03-23T17:27:30.072Z,3.93
2023-03-23T17:32:32.837Z,3.50
2023-03-23T17:37:36.227Z,3.73
2023-03-23T17:42:39.235Z,2.83
2023-03-23T17:47:41.616Z,4.10
2023-03-23T17:52:44.152Z,8.37
2023-03-23T17:57:46.511Z,7.00
2023-03-23T18:02:49.048Z,3.90
2023-03-23T18:07:51.495Z,8.80
2023-03-23T18:12:53.891Z,3.90
2023-03-23T18:17:57.880Z,4.03
2023-03-23T18:23:00.389Z,4.23
2023-03-23T18:28:04.839Z,3.37
2023-03-23T18:33:09.420Z,4.07
2023-03-23T18:38:12.973Z,5.27
2023-03-23T18:43:15.290Z,4.40
2023-03-23T18:48:18.024Z,5.20
2023-03-23T18:53:21.412Z,3.17
2023-03-23T18:58:23.703Z,3.00
2023-03-23T19:03:26.130Z,2.77
2023-03-23T19:08:30.115Z,2.50
2023-03-23T19:13:37.562Z,3.27
2023-03-23T19:18:41.831Z,3.00
2023-03-23T19:23:44.174Z,4.63
2023-03-23T19:29:23.302Z,9.53
2023-03-23T19:34:09.672Z,8.53
2023-03-23T19:39:12.643Z,3.97
2023-03-23T19:44:15.009Z,4.50
2023-03-23T19:49:18.150Z,7.93
2023-03-23T19:54:20.666Z,5.73
2023-03-23T19:59:23.001Z,5.00
2023-03-23T20:04:25.749Z,4.10
2023-03-23T20:09:28.541Z,3.77
2023-03-23T20:14:31.201Z,8.70
2023-03-23T20:19:36.647Z,4.90
2023-03-23T20:24:39.062Z,23.23
2023-03-23T20:29:42.016Z,26.03
2023-03-23T20:34:49.247Z,31.53
2023-03-23T20:39:51.648Z,20.67
2023-03-23T20:44:54.025Z,27.40
2023-03-23T20:49:56.550Z,17.63
2023-03-23T20:54:58.984Z,15.60
2023-03-23T21:00:02.557Z,15.47
2023-03-23T21:05:05.191Z,10.57
2023-03-23T21:10:07.548Z,8.43
2023-03-23T21:15:10.094Z,11.87
2023-03-23T21:20:13.748Z,9.03
2023-03-23T21:25:16.635Z,6.70
2023-03-23T21:30:19.729Z,5.77
2023-03-23T21:35:22.656Z,4.60
2023-03-23T21:40:27.074Z,13.00
2023-03-23T21:45:29.377Z,13.13
2023-03-23T21:50:35.726Z,5.53
2023-03-23T21:55:39.078Z,5.40
2023-03-23T22:00:41.496Z,6.87
2023-03-23T22:05:43.964Z,10.30
2023-03-23T22:11:00.438Z,12.87
2023-03-23T22:16:06.842Z,11.73
2023-03-23T22:21:10.200Z,8.07
2023-03-23T22:26:13.930Z,15.43
2023-03-23T22:31:22.429Z,8.97
2023-03-23T22:36:26.872Z,9.73
2023-03-23T22:41:36.829Z,12.50
2023-03-23T22:46:40.291Z,13.37
2023-03-23T22:51:42.686Z,17.50
2023-03-23T22:56:45.064Z,18.13
2023-03-23T23:01:47.446Z,9.50
2023-03-23T23:06:50.930Z,17.37
2023-03-23T23:11:55.866Z,15.30
2023-03-23T23:16:58.289Z,12.73
2023-03-23T23:22:12.591Z,30.10
2023-03-23T23:27:20.694Z,18.43
2023-03-23T23:32:23.068Z,14.23
2023-03-23T23:37:25.428Z,9.70
2023-03-23T23:42:27.769Z,9.27
2023-03-23T23:47:30.371Z,8.30
2023-03-23T23:52:32.962Z,8.60
2023-03-23T23:57:35.772Z,10.67
